createdAt,value
2017-04-25T00:00:22.123Z,11.63
2017-04-25T00:01:02.763Z,11.62
2017-04-25T00:01:43.346Z,11.68
2017-04-25T00:02:23.952Z,11.68
2017-04-25T00:03:04.584Z,11.72
2017-04-25T00:03:45.215Z,11.69
2017-04-25T00:04:25.803Z,11.77
2017-04-25T00:05:06.408Z,11.62
2017-04-25T00:05:47.044Z,11.7
2017-04-25T00:06:27.683Z,11.65
2017-04-25T00:07:08.299Z,11.63
2017-04-25T00:07:48.910Z,11.73
2017-04-25T00:08:29.521Z,11.7
2017-04-25T00:09:10.133Z,11.68
2017-04-25T00:09:50.753Z,11.7
2017-04-25T00:10:31.359Z,11.54
2017-04-25T00:11:11.966Z,11.63
2017-04-25T00:11:52.581Z,11.57
2017-04-25T00:12:33.191Z,11.68
2017-04-25T00:13:13.820Z,11.62
2017-04-25T00:13:54.429Z,11.69
2017-04-25T00:14:35.065Z,11.68
2017-04-25T00:15:15.698Z,11.69
2017-04-25T00:15:56.312Z,11.72
2017-04-25T00:16:36.925Z,11.72
2017-04-25T00:17:17.538Z,11.59
2017-04-25T00:17:58.140Z,11.69
2017-04-25T00:18:38.739Z,11.69
2017-04-25T00:19:19.374Z,11.63
2017-04-25T00:20:00.005Z,11.69
2017-04-25T00:20:40.611Z,11.66
2017-04-25T00:21:21.235Z,11.63
2017-04-25T00:22:01.842Z,11.72
2017-04-25T00:22:42.458Z,11.68
2017-04-25T00:23:23.057Z,11.7
2017-04-25T00:24:03.672Z,11.69
2017-04-25T00:24:44.272Z,11.6
2017-04-25T00:25:24.880Z,11.57
2017-04-25T00:26:05.475Z,11.68
2017-04-25T00:26:46.091Z,11.69
2017-04-25T00:27:26.710Z,11.65
2017-04-25T00:28:07.320Z,11.57
2017-04-25T00:28:47.925Z,11.57
2017-04-25T00:29:28.536Z,11.55
2017-04-25T00:30:09.135Z,11.65
2017-04-25T00:30:49.747Z,11.57
2017-04-25T00:31:30.361Z,11.63
2017-04-25T00:32:10.964Z,11.66
2017-04-25T00:32:51.576Z,11.57
2017-04-25T00:33:32.183Z,11.57
2017-04-25T00:34:12.791Z,11.52
2017-04-25T00:34:53.392Z,11.57
2017-04-25T00:35:33.995Z,11.55
2017-04-25T00:36:14.599Z,11.63
2017-04-25T00:36:55.193Z,11.6
2017-04-25T00:37:35.809Z,11.62
2017-04-25T00:38:16.435Z,11.62
2017-04-25T00:38:57.115Z,11.55
2017-04-25T00:39:37.729Z,11.63
2017-04-25T00:40:18.337Z,11.57
2017-04-25T00:40:58.930Z,11.62
2017-04-25T00:41:39.543Z,11.55
2017-04-25T00:42:20.162Z,11.59
2017-04-25T00:43:00.797Z,11.55
2017-04-25T00:43:41.421Z,11.59
2017-04-25T00:44:22.030Z,11.54
2017-04-25T00:45:02.648Z,11.52
2017-04-25T00:45:43.270Z,11.59
2017-04-25T00:46:23.890Z,11.54
2017-04-25T00:47:04.504Z,11.57
2017-04-25T00:47:45.116Z,11.6
2017-04-25T00:48:25.731Z,11.59
2017-04-25T00:49:06.365Z,11.6
2017-04-25T00:49:46.977Z,11.68
2017-04-25T00:50:27.584Z,11.65
2017-04-25T00:51:08.180Z,11.62
2017-04-25T00:51:48.792Z,11.6
2017-04-25T00:52:29.496Z,11.6
2017-04-25T00:53:12.629Z,11.62
2017-04-25T00:53:53.244Z,11.59
2017-04-25T00:54:33.834Z,11.51
2017-04-25T00:55:14.448Z,11.59
2017-04-25T00:55:55.080Z,11.62
2017-04-25T00:56:35.698Z,11.59
2017-04-25T00:57:16.321Z,11.52
2017-04-25T00:57:56.948Z,11.48
2017-04-25T00:58:37.553Z,11.52
2017-04-25T00:59:18.203Z,11.51
2017-04-25T00:59:58.820Z,11.54
2017-04-25T01:00:39.423Z,11.51
2017-04-25T01:01:20.016Z,11.47
2017-04-25T01:02:00.629Z,11.52
2017-04-25T01:02:41.263Z,11.51
2017-04-25T01:03:21.867Z,11.55
2017-04-25T01:04:02.495Z,11.54
2017-04-25T01:04:43.140Z,11.45
2017-04-25T01:05:23.754Z,11.54
2017-04-25T01:06:04.377Z,11.57
2017-04-25T01:06:45.034Z,11.54
2017-04-25T01:07:25.673Z,11.48
2017-04-25T01:08:06.302Z,11.48
2017-04-25T01:08:46.954Z,11.51
2017-04-25T01:09:27.585Z,11.51
2017-04-25T01:10:08.238Z,11.45
2017-04-25T01:10:48.893Z,11.52
2017-04-25T01:11:29.498Z,11.54
2017-04-25T01:12:10.095Z,11.5
2017-04-25T01:12:50.708Z,11.43
2017-04-25T01:13:31.314Z,11.47
2017-04-25T01:14:11.928Z,11.36
2017-04-25T01:14:52.552Z,11.44
2017-04-25T01:15:33.168Z,11.47
2017-04-25T01:16:13.805Z,11.52
2017-04-25T01:16:54.429Z,11.33
2017-04-25T01:17:35.071Z,11.32
2017-04-25T01:18:15.735Z,11.48
2017-04-25T01:18:56.331Z,11.35
2017-04-25T01:19:36.943Z,11.36
2017-04-25T01:20:17.619Z,11.36
2017-04-25T01:20:58.243Z,11.35
2017-04-25T01:21:38.847Z,11.37
2017-04-25T01:22:19.462Z,11.32
2017-04-25T01:23:00.091Z,11.36
2017-04-25T01:23:40.677Z,11.4
2017-04-25T01:24:21.299Z,11.4
2017-04-25T01:25:01.907Z,11.4
2017-04-25T01:25:42.532Z,11.35
2017-04-25T01:26:23.160Z,11.35
2017-04-25T01:27:03.764Z,11.33
2017-04-25T01:27:44.407Z,11.37
2017-04-25T01:28:25.011Z,11.37
2017-04-25T01:29:05.639Z,11.43
2017-04-25T01:29:46.247Z,11.4
2017-04-25T01:30:26.873Z,11.4
2017-04-25T01:31:07.509Z,11.44
2017-04-25T01:31:48.103Z,11.41
2017-04-25T01:32:28.721Z,11.4
2017-04-25T01:33:09.323Z,11.36
2017-04-25T01:33:49.929Z,11.36
2017-04-25T01:34:30.575Z,11.36
2017-04-25T01:35:11.219Z,11.32
2017-04-25T01:35:51.815Z,11.37
2017-04-25T01:36:32.439Z,11.32
2017-04-25T01:37:13.054Z,11.36
2017-04-25T01:37:53.673Z,11.35
2017-04-25T01:38:34.312Z,11.32
2017-04-25T01:39:14.881Z,11.35
2017-04-25T01:39:55.508Z,11.32
2017-04-25T01:40:36.211Z,11.29
2017-04-25T01:41:16.800Z,11.25
2017-04-25T01:41:57.400Z,11.23
2017-04-25T01:42:38.034Z,11.3
2017-04-25T01:43:18.650Z,11.33
2017-04-25T01:43:59.250Z,11.3
2017-04-25T01:44:39.851Z,11.27
2017-04-25T01:45:20.474Z,11.25
2017-04-25T01:46:01.096Z,11.19
2017-04-25T01:46:41.702Z,11.25
2017-04-25T01:47:22.314Z,11.3
2017-04-25T01:48:02.907Z,11.22
2017-04-25T01:48:43.568Z,11.22
2017-04-25T01:49:24.176Z,11.22
2017-04-25T01:50:04.777Z,11.23
2017-04-25T01:50:45.390Z,11.22
2017-04-25T01:51:25.982Z,11.11
2017-04-25T01:52:06.582Z,11.14
2017-04-25T01:52:47.200Z,11.15
2017-04-25T01:53:27.839Z,11.05
2017-04-25T01:54:08.460Z,11.18
2017-04-25T01:54:49.078Z,11.04
2017-04-25T01:55:29.688Z,11.19
2017-04-25T01:56:10.364Z,11.14
2017-04-25T01:56:50.986Z,11.11
2017-04-25T01:57:31.614Z,11.05
2017-04-25T01:58:12.230Z,11.18
2017-04-25T01:58:52.851Z,11.04
2017-04-25T01:59:33.513Z,11.18
2017-04-25T02:00:14.138Z,11.1
2017-04-25T02:00:54.746Z,11
2017-04-25T02:01:35.354Z,11.17
2017-04-25T02:02:15.953Z,11.1
2017-04-25T02:02:56.606Z,11.1
2017-04-25T02:03:37.236Z,11.18
2017-04-25T02:04:17.887Z,11.1
2017-04-25T02:04:58.657Z,11.08
2017-04-25T02:05:39.117Z,11.11
2017-04-25T02:06:19.719Z,11.11
2017-04-25T02:07:00.331Z,11.12
2017-04-25T02:07:40.949Z,11.12
2017-04-25T02:08:21.608Z,11.1
2017-04-25T02:09:02.235Z,11.14
2017-04-25T02:09:42.838Z,11.15
2017-04-25T02:10:23.433Z,11.15
2017-04-25T02:11:04.057Z,11.18
2017-04-25T02:11:44.677Z,11.11
2017-04-25T02:12:25.302Z,11.14
2017-04-25T02:13:05.883Z,11.18
2017-04-25T02:13:46.557Z,11.08
2017-04-25T02:14:27.100Z,11.12
2017-04-25T02:15:07.708Z,11.1
2017-04-25T02:15:48.419Z,11.07
2017-04-25T02:16:29.052Z,11.04
2017-04-25T02:17:09.666Z,11.08
2017-04-25T02:17:50.254Z,11.11
2017-04-25T02:18:30.858Z,11.05
2017-04-25T02:19:11.457Z,11.11
2017-04-25T02:19:52.069Z,11.1
2017-04-25T02:20:32.673Z,11.07
2017-04-25T02:21:13.322Z,11.08
2017-04-25T02:21:53.929Z,11.05
2017-04-25T02:22:34.602Z,11.04
2017-04-25T02:23:15.215Z,11.05
2017-04-25T02:23:55.833Z,11
2017-04-25T02:24:36.463Z,11.05
2017-04-25T02:25:17.141Z,11.08
2017-04-25T02:25:57.751Z,11.08
2017-04-25T02:26:38.343Z,11.02
2017-04-25T02:27:18.994Z,11
2017-04-25T02:27:59.715Z,11.04
2017-04-25T02:28:40.370Z,11.07
2017-04-25T02:29:21.020Z,11.07
2017-04-25T02:30:01.649Z,11.1
2017-04-25T02:30:42.269Z,11.02
2017-04-25T02:31:22.889Z,11
2017-04-25T02:32:03.516Z,11.02
2017-04-25T02:32:44.125Z,11.05
2017-04-25T02:33:24.743Z,11.07
2017-04-25T02:34:05.366Z,11.04
2017-04-25T02:34:45.970Z,10.99
2017-04-25T02:35:26.575Z,11.07
2017-04-25T02:36:07.181Z,11.04
2017-04-25T02:36:47.792Z,11.05
2017-04-25T02:37:28.439Z,11.05
2017-04-25T02:38:09.040Z,11.07
2017-04-25T02:38:49.645Z,11.07
2017-04-25T02:39:30.287Z,11.02
2017-04-25T02:40:10.900Z,11.04
2017-04-25T02:40:51.508Z,11.04
2017-04-25T02:41:32.139Z,11.08
2017-04-25T02:42:12.791Z,11.07
2017-04-25T02:42:53.447Z,11.07
2017-04-25T02:43:34.086Z,11.08
2017-04-25T02:44:14.700Z,10.99
2017-04-25T02:44:55.315Z,11.05
2017-04-25T02:45:35.955Z,11.1
2017-04-25T02:46:16.600Z,10.93
2017-04-25T02:46:57.201Z,11.02
2017-04-25T02:47:37.817Z,10.92
2017-04-25T02:48:18.415Z,11.07
2017-04-25T02:48:59.036Z,10.99
2017-04-25T02:49:39.653Z,10.99
2017-04-25T02:50:20.258Z,10.96
2017-04-25T02:51:00.881Z,11.02
2017-04-25T02:51:41.521Z,11.05
2017-04-25T02:52:22.119Z,11.08
2017-04-25T02:53:02.781Z,11.05
2017-04-25T02:53:43.415Z,11.04
2017-04-25T02:54:24.070Z,11.02
2017-04-25T02:55:04.688Z,11.04
2017-04-25T02:55:45.318Z,10.99
2017-04-25T02:56:25.925Z,10.92
2017-04-25T02:57:06.539Z,10.96
2017-04-25T02:57:47.149Z,10.97
2017-04-25T02:58:27.842Z,10.97
2017-04-25T02:59:08.448Z,10.96
2017-04-25T02:59:49.059Z,11
2017-04-25T03:00:29.701Z,10.93
2017-04-25T03:01:10.352Z,10.94
2017-04-25T03:01:51.009Z,10.99
2017-04-25T03:02:31.604Z,10.99
2017-04-25T03:03:12.234Z,10.89
2017-04-25T03:03:52.840Z,11.05
2017-04-25T03:04:33.452Z,10.9
2017-04-25T03:05:14.092Z,10.93
2017-04-25T03:05:54.689Z,10.9
2017-04-25T03:06:35.296Z,10.96
2017-04-25T03:07:15.915Z,10.87
2017-04-25T03:07:56.515Z,11.02
2017-04-25T03:08:37.116Z,10.99
2017-04-25T03:09:17.728Z,10.92
2017-04-25T03:09:58.331Z,10.96
2017-04-25T03:10:38.947Z,10.9
2017-04-25T03:11:19.544Z,10.92
2017-04-25T03:12:00.172Z,10.97
2017-04-25T03:12:40.780Z,10.97
2017-04-25T03:13:21.385Z,10.89
2017-04-25T03:14:02.005Z,10.93
2017-04-25T03:14:42.614Z,10.92
2017-04-25T03:15:23.207Z,10.94
2017-04-25T03:16:03.826Z,10.96
2017-04-25T03:16:44.440Z,10.93
2017-04-25T03:17:25.045Z,10.89
2017-04-25T03:18:05.656Z,10.94
2017-04-25T03:18:46.267Z,10.92
2017-04-25T03:19:26.883Z,10.97
2017-04-25T03:20:07.518Z,10.92
2017-04-25T03:20:48.152Z,10.9
2017-04-25T03:21:28.759Z,11
2017-04-25T03:22:09.368Z,10.93
2017-04-25T03:22:50.026Z,10.89
2017-04-25T03:23:30.627Z,10.92
2017-04-25T03:24:11.230Z,10.99
2017-04-25T03:24:51.871Z,10.93
2017-04-25T03:25:32.484Z,10.84
2017-04-25T03:26:13.079Z,10.99
2017-04-25T03:26:53.708Z,10.97
2017-04-25T03:27:34.313Z,10.94
2017-04-25T03:28:14.929Z,10.92
2017-04-25T03:28:55.583Z,10.93
2017-04-25T03:29:36.156Z,11.02
2017-04-25T03:30:16.808Z,10.93
2017-04-25T03:30:57.423Z,11.02
2017-04-25T03:31:38.032Z,10.87
2017-04-25T03:32:18.637Z,10.93
2017-04-25T03:32:59.268Z,10.92
2017-04-25T03:33:39.881Z,11.02
2017-04-25T03:34:20.541Z,10.9
2017-04-25T03:35:01.150Z,11.05
2017-04-25T03:35:41.758Z,10.89
2017-04-25T03:36:22.373Z,10.92
2017-04-25T03:37:02.993Z,10.99
2017-04-25T03:37:43.590Z,11
2017-04-25T03:38:24.202Z,10.94
2017-04-25T03:39:04.805Z,10.92
2017-04-25T03:39:45.454Z,11
2017-04-25T03:40:26.078Z,10.94
2017-04-25T03:41:06.689Z,10.96
2017-04-25T03:41:47.289Z,10.97
2017-04-25T03:42:27.908Z,11
2017-04-25T03:43:08.520Z,11
2017-04-25T03:43:49.126Z,10.96
2017-04-25T03:44:29.766Z,10.94
2017-04-25T03:45:10.377Z,10.92
2017-04-25T03:45:50.985Z,10.96
2017-04-25T03:46:31.605Z,10.87
2017-04-25T03:47:12.240Z,10.93
2017-04-25T03:47:52.851Z,10.97
2017-04-25T03:48:33.482Z,11.02
2017-04-25T03:49:14.074Z,10.94
2017-04-25T03:49:54.696Z,10.94
2017-04-25T03:50:35.313Z,10.97
2017-04-25T03:51:15.953Z,10.96
2017-04-25T03:51:56.578Z,10.94
2017-04-25T03:52:37.196Z,10.96
2017-04-25T03:53:17.824Z,10.99
2017-04-25T03:53:58.436Z,10.94
2017-04-25T03:54:39.037Z,11.04
2017-04-25T03:55:19.663Z,10.9
2017-04-25T03:56:00.275Z,10.9
2017-04-25T03:56:40.935Z,11
2017-04-25T03:57:21.684Z,10.92
2017-04-25T03:58:02.319Z,10.89
2017-04-25T03:58:42.937Z,10.9
2017-04-25T03:59:23.553Z,10.99
2017-04-25T04:00:04.174Z,10.86
2017-04-25T04:00:44.821Z,10.86
2017-04-25T04:01:25.468Z,10.9
2017-04-25T04:02:06.106Z,10.92
2017-04-25T04:02:46.720Z,10.86
2017-04-25T04:03:27.358Z,10.87
2017-04-25T04:04:07.960Z,10.9
2017-04-25T04:04:48.614Z,10.89
2017-04-25T04:05:29.270Z,10.9
2017-04-25T04:06:09.884Z,10.84
2017-04-25T04:06:50.520Z,10.87
2017-04-25T04:07:31.123Z,10.81
2017-04-25T04:08:11.729Z,10.86
2017-04-25T04:08:52.371Z,10.84
2017-04-25T04:09:33.023Z,10.87
2017-04-25T04:10:13.633Z,10.82
2017-04-25T04:10:54.293Z,10.87
2017-04-25T04:11:34.889Z,10.89
2017-04-25T04:12:15.509Z,10.86
2017-04-25T04:12:56.165Z,10.86
2017-04-25T04:13:36.775Z,10.9
2017-04-25T04:14:17.415Z,10.84
2017-04-25T04:14:58.086Z,10.86
2017-04-25T04:15:38.753Z,10.87
2017-04-25T04:16:19.394Z,10.9
2017-04-25T04:17:00.032Z,10.92
2017-04-25T04:17:40.671Z,10.92
2017-04-25T04:18:21.336Z,10.87
2017-04-25T04:19:01.970Z,10.84
2017-04-25T04:19:42.586Z,10.87
2017-04-25T04:20:23.214Z,10.93
2017-04-25T04:21:03.819Z,10.9
2017-04-25T04:21:44.464Z,10.9
2017-04-25T04:22:25.169Z,10.9
2017-04-25T04:23:05.803Z,10.93
2017-04-25T04:23:46.440Z,10.92
2017-04-25T04:24:27.072Z,10.9
2017-04-25T04:25:07.722Z,10.89
2017-04-25T04:25:48.358Z,10.93
2017-04-25T04:26:28.998Z,10.94
2017-04-25T04:27:09.597Z,10.94
2017-04-25T04:27:50.241Z,10.97
2017-04-25T04:28:30.951Z,10.93
2017-04-25T04:29:11.556Z,10.9
2017-04-25T04:29:52.183Z,10.89
2017-04-25T04:30:32.780Z,10.97
2017-04-25T04:31:13.412Z,10.99
2017-04-25T04:31:54.032Z,10.92
2017-04-25T04:32:34.648Z,11.02
2017-04-25T04:33:15.275Z,10.87
2017-04-25T04:33:55.891Z,10.9
2017-04-25T04:34:36.525Z,11.02
2017-04-25T04:35:17.122Z,10.93
2017-04-25T04:35:57.745Z,10.92
2017-04-25T04:36:38.368Z,10.94
2017-04-25T04:37:18.973Z,10.93
2017-04-25T04:37:59.569Z,10.94
2017-04-25T04:38:40.191Z,10.94
2017-04-25T04:39:20.799Z,10.94
2017-04-25T04:40:01.417Z,10.93
2017-04-25T04:40:42.043Z,10.9
2017-04-25T04:41:22.704Z,10.94
2017-04-25T04:42:03.342Z,10.96
2017-04-25T04:42:43.960Z,10.94
2017-04-25T04:43:24.612Z,10.92
2017-04-25T04:44:05.309Z,10.93
2017-04-25T04:44:45.938Z,11
2017-04-25T04:45:26.577Z,10.93
2017-04-25T04:46:07.194Z,11
2017-04-25T04:46:47.818Z,11
2017-04-25T04:47:28.424Z,10.99
2017-04-25T04:48:09.043Z,11.02
2017-04-25T04:48:49.678Z,10.99
2017-04-25T04:49:30.341Z,10.93
2017-04-25T04:50:10.951Z,11
2017-04-25T04:50:51.604Z,11
2017-04-25T04:51:32.224Z,11.07
2017-04-25T04:52:12.842Z,11.1
2017-04-25T04:52:53.493Z,10.99
2017-04-25T04:53:34.121Z,10.92
2017-04-25T04:54:14.909Z,10.99
2017-04-25T04:54:55.534Z,11.07
2017-04-25T04:55:36.158Z,10.99
2017-04-25T04:56:16.818Z,10.93
2017-04-25T04:56:57.483Z,10.92
2017-04-25T04:57:38.173Z,10.94
2017-04-25T04:58:18.848Z,10.92
2017-04-25T04:58:59.491Z,10.94
2017-04-25T04:59:40.139Z,10.93
2017-04-25T05:00:20.755Z,11.04
2017-04-25T05:01:01.420Z,10.94
2017-04-25T05:01:42.090Z,10.96
2017-04-25T05:02:22.790Z,10.94
2017-04-25T05:03:03.452Z,10.99
2017-04-25T05:03:44.123Z,10.97
2017-04-25T05:04:24.808Z,10.97
2017-04-25T05:05:05.605Z,10.99
2017-04-25T05:05:46.352Z,10.92
2017-04-25T05:06:27.058Z,11.02
2017-04-25T05:07:07.699Z,10.92
2017-04-25T05:07:48.392Z,10.99
2017-04-25T05:08:29.085Z,11.02
2017-04-25T05:09:09.735Z,11
2017-04-25T05:09:50.364Z,10.94
2017-04-25T05:10:31.007Z,10.96
2017-04-25T05:11:11.652Z,10.92
2017-04-25T05:11:52.275Z,10.93
2017-04-25T05:12:32.918Z,10.94
2017-04-25T05:13:13.542Z,10.93
2017-04-25T05:13:54.184Z,10.97
2017-04-25T05:14:34.830Z,10.94
2017-04-25T05:15:15.449Z,11
2017-04-25T05:15:56.055Z,10.92
2017-04-25T05:16:36.665Z,10.87
2017-04-25T05:17:17.294Z,10.87
2017-04-25T05:17:57.925Z,10.89
2017-04-25T05:18:38.566Z,10.84
2017-04-25T05:19:19.173Z,10.84
2017-04-25T05:19:59.783Z,10.86
2017-04-25T05:20:40.423Z,10.86
2017-04-25T05:21:21.035Z,10.84
2017-04-25T05:22:01.655Z,10.86
2017-04-25T05:22:42.291Z,10.79
2017-04-25T05:23:22.913Z,10.82
2017-04-25T05:24:03.543Z,10.72
2017-04-25T05:24:44.158Z,10.76
2017-04-25T05:25:24.829Z,10.72
2017-04-25T05:26:05.478Z,10.75
2017-04-25T05:26:46.105Z,10.72
2017-04-25T05:27:26.719Z,10.76
2017-04-25T05:28:07.373Z,10.67
2017-04-25T05:28:48.029Z,10.75
2017-04-25T05:29:28.658Z,10.72
2017-04-25T05:30:09.493Z,10.69
2017-04-25T05:30:50.149Z,10.67
2017-04-25T05:31:30.895Z,10.75
2017-04-25T05:32:11.524Z,10.67
2017-04-25T05:32:52.148Z,10.68
2017-04-25T05:33:32.762Z,10.68
2017-04-25T05:34:13.420Z,10.69
2017-04-25T05:34:54.029Z,10.71
2017-04-25T05:35:34.707Z,10.68
2017-04-25T05:36:15.347Z,10.76
2017-04-25T05:36:55.995Z,10.72
2017-04-25T05:37:36.653Z,10.72
2017-04-25T05:38:17.286Z,10.79
2017-04-25T05:38:57.918Z,10.79
2017-04-25T05:39:38.567Z,10.74
2017-04-25T05:40:19.203Z,10.89
2017-04-25T05:40:59.838Z,10.84
2017-04-25T05:41:40.454Z,10.79
2017-04-25T05:42:21.061Z,10.87
2017-04-25T05:43:01.708Z,10.82
2017-04-25T05:43:42.336Z,10.86
2017-04-25T05:44:22.961Z,10.82
2017-04-25T05:45:03.578Z,10.81
2017-04-25T05:45:44.256Z,10.84
2017-04-25T05:46:24.853Z,10.86
2017-04-25T05:47:05.471Z,10.89
2017-04-25T05:47:46.136Z,10.86
2017-04-25T05:48:26.735Z,10.86
2017-04-25T05:49:07.333Z,10.86
2017-04-25T05:49:47.948Z,10.89
2017-04-25T05:50:28.547Z,10.87
2017-04-25T05:51:09.149Z,10.94
2017-04-25T05:51:49.792Z,10.89
2017-04-25T05:52:30.396Z,10.9
2017-04-25T05:53:11.031Z,10.9
2017-04-25T05:53:51.690Z,10.84
2017-04-25T05:54:32.289Z,10.87
2017-04-25T05:55:12.895Z,10.9
2017-04-25T05:55:53.508Z,10.87
2017-04-25T05:56:34.137Z,10.93
2017-04-25T05:57:14.746Z,10.92
2017-04-25T05:57:55.380Z,10.86
2017-04-25T05:58:35.992Z,10.92
2017-04-25T05:59:16.610Z,10.86
2017-04-25T05:59:57.220Z,10.99
2017-04-25T06:00:37.834Z,11.05
2017-04-25T06:01:18.453Z,10.93
2017-04-25T06:01:59.054Z,11.08
2017-04-25T06:02:39.684Z,11.07
2017-04-25T06:03:20.296Z,11.12
2017-04-25T06:04:00.903Z,11.1
2017-04-25T06:04:41.533Z,11.14
2017-04-25T06:05:22.157Z,11.22
2017-04-25T06:06:02.758Z,11.25
2017-04-25T06:06:43.364Z,11.19
2017-04-25T06:07:24.003Z,11.32
2017-04-25T06:08:04.684Z,11.33
2017-04-25T06:08:45.333Z,11.55
2017-04-25T06:09:25.949Z,11.65
2017-04-25T06:10:06.588Z,11.77
2017-04-25T06:10:47.193Z,11.97
2017-04-25T06:11:27.824Z,12.13
2017-04-25T06:12:08.453Z,12.27
2017-04-25T06:12:49.215Z,12.32
2017-04-25T06:13:29.835Z,12.46
2017-04-25T06:14:10.452Z,12.53
2017-04-25T06:14:51.036Z,12.62
2017-04-25T06:15:31.655Z,12.6
2017-04-25T06:16:12.269Z,12.72
2017-04-25T06:16:52.861Z,12.86
2017-04-25T06:17:33.449Z,12.85
2017-04-25T06:18:14.054Z,12.94
2017-04-25T06:18:55.266Z,13.08
2017-04-25T06:19:35.649Z,13.23
2017-04-25T06:20:16.263Z,13.22
2017-04-25T06:20:56.851Z,13.31
2017-04-25T06:21:38.268Z,13.41
2017-04-25T06:22:18.856Z,13.37
2017-04-25T06:22:59.459Z,13.44
2017-04-25T06:23:40.083Z,13.52
2017-04-25T06:24:20.654Z,13.5
2017-04-25T06:25:01.245Z,13.57
2017-04-25T06:25:41.981Z,13.59
2017-04-25T06:26:22.579Z,13.71
2017-04-25T06:27:03.201Z,13.77
2017-04-25T06:27:43.832Z,13.72
2017-04-25T06:28:24.419Z,13.77
2017-04-25T06:29:05.011Z,13.78
2017-04-25T06:29:45.754Z,13.79
2017-04-25T06:30:26.331Z,13.77
2017-04-25T06:31:06.912Z,13.78
2017-04-25T06:31:47.509Z,13.71
2017-04-25T06:32:28.084Z,13.79
2017-04-25T06:33:08.669Z,13.74
2017-04-25T06:33:49.279Z,13.85
2017-04-25T06:34:30.234Z,13.79
2017-04-25T06:35:10.836Z,13.86
2017-04-25T06:35:51.407Z,13.77
2017-04-25T06:36:32.009Z,13.71
2017-04-25T06:37:12.561Z,13.71
2017-04-25T06:37:53.135Z,13.7
2017-04-25T06:38:33.732Z,13.77
2017-04-25T06:39:14.325Z,13.79
2017-04-25T06:39:54.898Z,13.81
2017-04-25T06:40:35.493Z,13.85
2017-04-25T06:41:16.088Z,13.87
2017-04-25T06:41:56.683Z,13.83
2017-04-25T06:42:37.302Z,13.9
2017-04-25T06:43:17.899Z,13.86
2017-04-25T06:43:58.488Z,13.87
2017-04-25T06:44:39.080Z,13.92
2017-04-25T06:45:19.660Z,13.99
2017-04-25T06:46:00.282Z,14.05
2017-04-25T06:46:40.877Z,13.97
2017-04-25T06:47:21.490Z,14.05
2017-04-25T06:48:02.111Z,14.08
2017-04-25T06:48:42.698Z,14.07
2017-04-25T06:49:23.275Z,14.17
2017-04-25T06:50:03.870Z,14.2
2017-04-25T06:50:44.445Z,14.25
2017-04-25T06:51:25.129Z,14.33
2017-04-25T06:52:05.730Z,14.35
2017-04-25T06:52:46.337Z,14.37
2017-04-25T06:53:27.429Z,14.36
2017-04-25T06:54:08.004Z,14.35
2017-04-25T06:54:48.605Z,14.32
2017-04-25T06:55:29.211Z,14.18
2017-04-25T06:56:10.026Z,14.04
2017-04-25T06:56:50.699Z,13.96
2017-04-25T06:57:31.367Z,13.9
2017-04-25T06:58:11.968Z,13.89
2017-04-25T06:58:52.554Z,13.85
2017-04-25T06:59:33.225Z,13.9
2017-04-25T07:00:13.803Z,13.89
2017-04-25T07:00:54.422Z,13.93
2017-04-25T07:01:35.104Z,13.86
2017-04-25T07:02:15.681Z,13.81
2017-04-25T07:02:56.262Z,13.7
2017-04-25T07:03:36.868Z,13.46
2017-04-25T07:04:17.447Z,13.44
2017-04-25T07:04:58.029Z,13.33
2017-04-25T07:05:38.801Z,13.22
2017-04-25T07:06:20.010Z,13.08
2017-04-25T07:07:01.650Z,12.98
2017-04-25T07:07:42.372Z,12.85
2017-04-25T07:08:22.986Z,12.76
2017-04-25T07:09:03.585Z,12.55
2017-04-25T07:09:44.559Z,12.47
2017-04-25T07:10:25.152Z,12.39
2017-04-25T07:11:05.766Z,12.46
2017-04-25T07:11:46.893Z,12.49
2017-04-25T07:12:27.549Z,12.47
2017-04-25T07:13:08.126Z,12.39
2017-04-25T07:13:48.712Z,12.31
2017-04-25T07:14:29.585Z,12.12
2017-04-25T07:15:10.181Z,12.12
2017-04-25T07:15:50.770Z,11.95
2017-04-25T07:16:31.369Z,11.88
2017-04-25T07:17:11.969Z,11.72
2017-04-25T07:17:52.541Z,11.69
2017-04-25T07:18:33.124Z,11.72
2017-04-25T07:19:13.704Z,11.62
2017-04-25T07:19:54.320Z,11.59
2017-04-25T07:20:35.213Z,11.59
2017-04-25T07:21:15.811Z,11.65
2017-04-25T07:21:56.380Z,11.59
2017-04-25T07:22:36.991Z,11.51
2017-04-25T07:23:17.589Z,11.48
2017-04-25T07:23:58.157Z,11.48
2017-04-25T07:24:38.759Z,11.45
2017-04-25T07:25:19.308Z,11.41
2017-04-25T07:25:59.880Z,11.43
2017-04-25T07:26:40.469Z,11.35
2017-04-25T07:27:21.053Z,11.4
2017-04-25T07:28:01.657Z,11.29
2017-04-25T07:28:42.201Z,11.22
2017-04-25T07:29:22.800Z,11.12
2017-04-25T07:30:03.364Z,11.02
2017-04-25T07:30:43.986Z,10.99
2017-04-25T07:31:24.598Z,10.94
2017-04-25T07:32:05.213Z,10.97
2017-04-25T07:32:45.792Z,11.02
2017-04-25T07:33:26.389Z,11
2017-04-25T07:34:06.971Z,10.99
2017-04-25T07:34:47.556Z,10.89
2017-04-25T07:35:28.187Z,10.9
2017-04-25T07:36:08.762Z,10.9
2017-04-25T07:36:49.355Z,10.87
2017-04-25T07:37:29.949Z,10.87
2017-04-25T07:38:10.565Z,10.76
2017-04-25T07:38:51.174Z,10.81
2017-04-25T07:39:31.764Z,10.75
2017-04-25T07:40:12.387Z,10.86
2017-04-25T07:40:52.978Z,10.82
2017-04-25T07:41:33.584Z,10.76
2017-04-25T07:42:14.166Z,10.79
2017-04-25T07:42:54.768Z,10.76
2017-04-25T07:43:35.365Z,10.81
2017-04-25T07:44:15.935Z,10.81
2017-04-25T07:44:56.537Z,10.78
2017-04-25T07:45:37.130Z,10.87
2017-04-25T07:46:17.781Z,10.84
2017-04-25T07:46:58.390Z,10.9
2017-04-25T07:47:38.957Z,10.84
2017-04-25T07:48:19.533Z,10.86
2017-04-25T07:49:00.124Z,10.86
2017-04-25T07:49:40.808Z,10.84
2017-04-25T07:50:21.406Z,10.82
2017-04-25T07:51:02.056Z,10.86
2017-04-25T07:51:42.666Z,10.87
2017-04-25T07:52:23.248Z,10.82
2017-04-25T07:53:03.826Z,10.87
2017-04-25T07:53:44.433Z,10.87
2017-04-25T07:54:25.176Z,10.84
2017-04-25T07:55:05.769Z,10.84
2017-04-25T07:55:46.344Z,10.79
2017-04-25T07:56:26.927Z,10.87
2017-04-25T07:57:07.504Z,10.76
2017-04-25T07:57:48.151Z,10.78
2017-04-25T07:58:28.733Z,10.75
2017-04-25T07:59:09.363Z,10.75
2017-04-25T07:59:49.930Z,10.78
2017-04-25T08:00:30.497Z,10.76
2017-04-25T08:01:11.068Z,10.79
2017-04-25T08:01:51.685Z,10.76
2017-04-25T08:02:32.314Z,10.78
2017-04-25T08:03:12.910Z,10.72
2017-04-25T08:03:53.480Z,10.76
2017-04-25T08:04:34.051Z,10.67
2017-04-25T08:05:14.657Z,10.75
2017-04-25T08:05:55.235Z,10.75
2017-04-25T08:06:35.805Z,10.72
2017-04-25T08:07:16.412Z,10.75
2017-04-25T08:07:56.990Z,10.74
2017-04-25T08:08:37.589Z,10.71
2017-04-25T08:09:18.157Z,10.75
2017-04-25T08:09:58.731Z,10.81
2017-04-25T08:10:39.330Z,10.78
2017-04-25T08:11:19.943Z,10.72
2017-04-25T08:12:00.558Z,10.69
2017-04-25T08:12:41.147Z,10.72
2017-04-25T08:13:21.758Z,10.76
2017-04-25T08:14:02.328Z,10.74
2017-04-25T08:14:42.919Z,10.74
2017-04-25T08:15:23.509Z,10.69
2017-04-25T08:16:04.076Z,10.72
2017-04-25T08:16:44.661Z,10.75
2017-04-25T08:17:25.249Z,10.69
2017-04-25T08:18:05.830Z,10.76
2017-04-25T08:18:46.440Z,10.71
2017-04-25T08:19:27.024Z,10.71
2017-04-25T08:20:07.609Z,10.72
2017-04-25T08:20:48.212Z,10.69
2017-04-25T08:21:28.786Z,10.63
2017-04-25T08:22:09.402Z,10.74
2017-04-25T08:22:49.978Z,10.61
2017-04-25T08:23:30.548Z,10.69
2017-04-25T08:24:11.163Z,10.71
2017-04-25T08:24:51.756Z,10.69
2017-04-25T08:25:32.335Z,10.72
2017-04-25T08:26:12.939Z,10.67
2017-04-25T08:26:53.531Z,10.72
2017-04-25T08:27:34.109Z,10.75
2017-04-25T08:28:14.690Z,10.71
2017-04-25T08:28:55.288Z,10.74
2017-04-25T08:29:35.913Z,10.72
2017-04-25T08:30:16.484Z,10.74
2017-04-25T08:30:57.213Z,10.78
2017-04-25T08:31:37.856Z,10.71
2017-04-25T08:32:18.453Z,10.71
2017-04-25T08:32:59.090Z,10.78
2017-04-25T08:33:39.718Z,10.64
2017-04-25T08:34:20.277Z,10.72
2017-04-25T08:35:00.909Z,10.63
2017-04-25T08:35:41.576Z,10.71
2017-04-25T08:36:22.155Z,10.61
2017-04-25T08:37:02.766Z,10.69
2017-04-25T08:37:43.360Z,10.57
2017-04-25T08:38:23.947Z,10.64
2017-04-25T08:39:04.612Z,10.6
2017-04-25T08:39:45.238Z,10.53
2017-04-25T08:40:25.838Z,10.59
2017-04-25T08:41:06.421Z,10.46
2017-04-25T08:41:47.042Z,10.59
2017-04-25T08:42:27.690Z,10.54
2017-04-25T08:43:08.267Z,10.49
2017-04-25T08:43:48.902Z,10.57
2017-04-25T08:44:29.502Z,10.41
2017-04-25T08:45:10.112Z,10.48
2017-04-25T08:45:50.701Z,10.4